Flight Track Log - Related Links

Times and Time Zones

All times are in EDT time to prevent confusion due to time zone crossing. See the AAL1796 flight status page for this flight to view local times or setup timezone preferences in your user account.

Time Position Orientation Groundspeed Altitude Reporting Facility
EDT Latitude Longitude Course Direction KTS MPH feet Rate Location/Type
Thu 06:50:56 PM 32.7667 -97.1000 335° Northwest 260 299 6,400  Level Dallas / Fort Worth TRACON
Thu 06:51:00 PM 32.8591 -96.8000 North  Level FlightAware Approximate
Thu 06:52:00 PM 32.9805 -96.8000 North  Level FlightAware Approximate
Thu 06:52:31 PM 32.7706 -97.2356 272° West 269 310 10,700  Level Fort Worth Center
Thu 06:53:00 PM 33.0887 -96.8646 331° Northwest  Level FlightAware Approximate
Thu 06:53:31 PM 32.8394 -97.2775 333° Northwest 263 303 12,400  Level Fort Worth Center
Thu 06:54:00 PM 33.1946 -96.9352 331° Northwest  Level FlightAware Approximate
Thu 06:54:32 PM 32.9481 -97.2747 North 311 358 15,300  Level Fort Worth Center
Thu 06:55:00 PM 33.2872 -96.9987 328° Northwest  Level FlightAware Approximate
Thu 06:55:31 PM 33.0442 -97.2572 North 366 421 17,000  Level Fort Worth Center
Thu 06:56:00 PM 33.3806 -97.0603 335° Northwest  Level FlightAware Approximate
Thu 06:56:31 PM 33.1631 -97.2150 17° North 399 459 19,500  Level Fort Worth Center
Thu 06:57:31 PM 33.2694 -97.1750 17° North 425 489 21,100 1,750 Climbing Fort Worth Center
Thu 06:58:31 PM 33.4028 -97.1297 16° North 444 511 23,000 1,700 Climbing Fort Worth Center
Thu 06:59:31 PM 33.5258 -97.0844 17° North 450 518 24,500 1,400 Climbing Fort Worth Center
Thu 07:00:31 PM 33.6553 -97.0392 16° North 460 529 25,800 1,500 Climbing Fort Worth Center
Thu 07:01:31 PM 33.7844 -96.9961 15° North 471 542 27,500 1,800 Climbing Fort Worth Center
Thu 07:02:31 PM 33.9117 -96.9531 16° North 471 542 29,400 1,636 Climbing Fort Worth Center
Thu 07:03:32 PM 34.0389 -96.9072 17° North 471 542 30,800 1,450 Climbing Fort Worth Center
Thu 07:04:31 PM 34.1575 -96.8664 16° North 457 526 32,300 1,059 Climbing Fort Worth Center
Thu 07:05:31 PM 34.2825 -96.8228 16° North 452 520 32,900 347 Climbing Fort Worth Center
Thu 07:06:32 PM 34.4056 -96.7792 16° North 452 520 33,000 50 Climbing Fort Worth Center
Thu 07:07:31 PM 34.5261 -96.7356 17° North 452 520 33,000  Level Fort Worth Center
Thu 07:08:31 PM 34.6492 -96.6917 16° North 452 520 33,000  Level Fort Worth Center
Thu 07:09:31 PM 34.7739 -96.6475 16° North 452 520 33,000  Level Fort Worth Center
Thu 07:10:31 PM 34.8989 -96.6033 16° North 458 527 33,000 50 Level Fort Worth Center
Thu 07:11:31 PM 35.0236 -96.5592 16° North 458 527 33,100 -312 Climbing Fort Worth Center
Thu 07:13:24 PM 35.2414 -96.4792 17° North 462 532 32,100 -690 Descending Kansas City Center
Thu 07:14:25 PM 35.3647 -96.4344 16° North 464 534 31,100 -541 Descending Kansas City Center
Thu 07:15:26 PM 35.4889 -96.3900 16° North 466 536 31,000 -48 Descending Kansas City Center
Thu 07:16:30 PM 35.6389 -96.3336 17° North 470 541 31,000  Level Kansas City Center
Thu 07:17:31 PM 35.7653 -96.2883 16° North 474 545 31,000  Level Kansas City Center
Thu 07:18:34 PM 35.8833 -96.2461 16° North 474 545 31,000  Level Kansas City Center
Thu 07:19:35 PM 36.0100 -96.2000 16° North 472 543 31,000  Level Kansas City Center
Thu 07:20:36 PM 36.1381 -96.1672 12° North 467 537 31,000  Level Kansas City Center
Thu 07:21:40 PM 36.2914 -96.1269 12° North 466 536 31,000  Level Kansas City Center
Thu 07:22:41 PM 36.4189 -96.0914 13° North 464 534 31,000 49 Level Kansas City Center
Thu 07:23:42 PM 36.5461 -96.0564 12° North 464 534 31,100  Climbing Kansas City Center
Thu 07:24:46 PM 36.6742 -96.0222 12° North 465 535 31,000 -95 Descending Kansas City Center
Thu 07:25:48 PM 36.8008 -95.9867 13° North 463 533 30,900  Descending Kansas City Center
Thu 07:26:49 PM 36.9281 -95.9531 12° North 462 532 31,000 49 Climbing Kansas City Center
Thu 07:27:50 PM 37.0533 -95.9189 12° North 459 528 31,000 -48 Level Kansas City Center
Thu 07:28:54 PM 37.1794 -95.8842 12° North 460 529 30,900  Descending Kansas City Center
Thu 07:29:55 PM 37.3322 -95.8414 13° North 464 534 31,000 49 Climbing Kansas City Center
Thu 07:30:57 PM 37.4583 -95.8067 12° North 463 533 31,000  Level Kansas City Center
Thu 07:32:01 PM 37.5850 -95.7694 13° North 464 534 31,000 48 Level Kansas City Center
Thu 07:33:02 PM 37.7119 -95.7342 12° North 465 535 31,100 -49 Climbing Kansas City Center
Thu 07:34:03 PM 37.8389 -95.6978 13° North 464 534 30,900 -1,180 Descending Kansas City Center
Thu 07:35:04 PM 37.9786 -95.6611 12° North 466 536 28,700 -2,160 Descending Kansas City Center
Thu 07:36:08 PM 38.0989 -95.6264 13° North 464 534 26,400 -2,496 Descending Kansas City Center
Thu 07:37:09 PM 38.2389 -95.5850 13° North 456 525 23,500 -2,496 Descending Kansas City Center
Thu 07:38:13 PM 38.3542 -95.5528 12° North 449 517 21,200 -2,448 Descending Kansas City Center
Thu 07:39:14 PM 38.4792 -95.5008 18° North 423 487 18,400 -2,613 Descending Kansas City Center
Thu 07:40:17 PM 38.5825 -95.4472 22° Northeast 417 480 15,800 -2,613 Descending Kansas City Center
Thu 07:41:18 PM 38.7000 -95.3889 21° North 404 465 13,000 -1,869 Descending Kansas City Center
Thu 07:42:19 PM 38.7939 -95.3414 22° Northeast 382 440 12,000 -480 Descending Kansas City Center
Thu 07:43:23 PM 38.8994 -95.2875 22° Northeast 367 422 12,000  Level Kansas City Center
Thu 07:44:24 PM 38.9681 -95.1906 48° Northeast 386 444 12,000  Level Kansas City Center
Thu 07:45:25 PM 39.0475 -95.0778 48° Northeast 385 443 12,000  Level Kansas City Center
Thu 07:46:28 PM 39.1158 -94.9794 48° Northeast 389 448 12,000 -94 Level Kansas City Center
Thu 07:47:32 PM 39.1742 -94.8503 60° Northeast 392 451 11,800 -629 Descending Kansas City Center
Thu 07:48:32 PM 39.1728 -94.7125 91° East 400 460 10,700 -992 Descending Kansas City Center
Thu 07:49:33 PM 39.1853 -94.5742 83° East 347 399 9,800 -864 Descending Kansas City Center
Thu 07:50:37 PM 39.1878 -94.4742 88° East 293 337 8,900 -1,381 Descending Kansas City Center
Thu 07:51:39 PM 39.2236 -94.3981 59° Northeast 251 289 6,900 -1,824 Descending Kansas City Center
Thu 07:52:42 PM 39.2789 -94.4072 353° North 210 242 5,100 -1,415 Descending Kansas City Center
Thu 07:53:42 PM 39.2800 -94.4703 271° West 205 236 4,000 -1,100 Descending Kansas City Center

Login

Don't have an account? Register now (free) for customized features, flight alerts, and more!